sensor_id;sensor_type;location;lat;lon;timestamp;pressure;altitude;pressure_sealevel;temperature;humidity
41218;BME280;26950;50.960;7.138;2023-06-19T00:01:56;99874.50;;;28.34;42.16
41218;BME280;26950;50.960;7.138;2023-06-19T00:04:22;99872.66;;;28.35;41.50
41218;BME280;26950;50.960;7.138;2023-06-19T00:06:49;99872.25;;;27.27;43.67
41218;BME280;26950;50.960;7.138;2023-06-19T00:09:15;99872.31;;;27.10;44.07
41218;BME280;26950;50.960;7.138;2023-06-19T00:11:42;99870.56;;;26.36;45.05
41218;BME280;26950;50.960;7.138;2023-06-19T00:14:08;99866.53;;;27.51;42.93
41218;BME280;26950;50.960;7.138;2023-06-19T00:16:35;99879.22;;;27.82;43.00
41218;BME280;26950;50.960;7.138;2023-06-19T00:19:03;99870.81;;;27.55;43.17
41218;BME280;26950;50.960;7.138;2023-06-19T00:21:29;99865.69;;;27.99;42.17
41218;BME280;26950;50.960;7.138;2023-06-19T00:23:56;99859.28;;;28.33;41.04
41218;BME280;26950;50.960;7.138;2023-06-19T00:26:22;99868.16;;;28.35;40.74
41218;BME280;26950;50.960;7.138;2023-06-19T00:28:50;99870.56;;;28.56;40.87
41218;BME280;26950;50.960;7.138;2023-06-19T00:31:17;99870.03;;;26.83;45.07
41218;BME280;26950;50.960;7.138;2023-06-19T00:33:44;99874.09;;;26.92;43.55
41218;BME280;26950;50.960;7.138;2023-06-19T00:36:15;99880.69;;;27.72;42.05
41218;BME280;26950;50.960;7.138;2023-06-19T00:38:45;99883.53;;;26.28;44.85
41218;BME280;26950;50.960;7.138;2023-06-19T00:41:12;99887.03;;;26.67;44.39
41218;BME280;26950;50.960;7.138;2023-06-19T00:43:38;99888.41;;;27.27;43.22
41218;BME280;26950;50.960;7.138;2023-06-19T00:46:05;99889.38;;;28.26;41.19
41218;BME280;26950;50.960;7.138;2023-06-19T00:48:32;99888.66;;;28.54;40.27
41218;BME280;26950;50.960;7.138;2023-06-19T00:51:00;99892.69;;;27.49;43.30
41218;BME280;26950;50.960;7.138;2023-06-19T00:53:28;99894.22;;;27.37;42.53
41218;BME280;26950;50.960;7.138;2023-06-19T00:55:57;99897.16;;;27.15;43.13
41218;BME280;26950;50.960;7.138;2023-06-19T00:58:24;99910.13;;;26.34;45.33
41218;BME280;26950;50.960;7.138;2023-06-19T01:00:50;99907.28;;;26.56;43.96
41218;BME280;26950;50.960;7.138;2023-06-19T01:03:17;99907.78;;;27.18;42.50
41218;BME280;26950;50.960;7.138;2023-06-19T01:05:46;99911.22;;;27.55;42.16
41218;BME280;26950;50.960;7.138;2023-06-19T01:08:25;99922.66;;;27.25;43.26
41218;BME280;26950;50.960;7.138;2023-06-19T01:10:59;99917.78;;;27.66;41.91
41218;BME280;26950;50.960;7.138;2023-06-19T01:13:31;99917.72;;;27.33;42.42
41218;BME280;26950;50.960;7.138;2023-06-19T01:16:02;99922.84;;;26.50;43.53
41218;BME280;26950;50.960;7.138;2023-06-19T01:18:30;99920.25;;;26.84;42.92
41218;BME280;26950;50.960;7.138;2023-06-19T01:20:56;99909.09;;;26.56;44.12
41218;BME280;26950;50.960;7.138;2023-06-19T01:23:24;99897.91;;;27.52;41.82
41218;BME280;26950;50.960;7.138;2023-06-19T01:25:51;99895.88;;;28.21;40.13
41218;BME280;26950;50.960;7.138;2023-06-19T01:28:17;99896.06;;;26.83;42.82
41218;BME280;26950;50.960;7.138;2023-06-19T01:30:44;99899.69;;;27.86;40.77
41218;BME280;26950;50.960;7.138;2023-06-19T01:33:15;99896.94;;;27.53;41.52
41218;BME280;26950;50.960;7.138;2023-06-19T01:35:45;99902.41;;;26.08;43.47
41218;BME280;26950;50.960;7.138;2023-06-19T01:38:13;99907.06;;;25.86;44.06
41218;BME280;26950;50.960;7.138;2023-06-19T01:40:42;99907.88;;;25.67;44.51
41218;BME280;26950;50.960;7.138;2023-06-19T01:43:10;99912.53;;;25.43;44.81
41218;BME280;26950;50.960;7.138;2023-06-19T01:45:37;99913.59;;;26.36;43.29
41218;BME280;26950;50.960;7.138;2023-06-19T01:48:04;99908.03;;;26.77;42.28
41218;BME280;26950;50.960;7.138;2023-06-19T01:50:30;99912.75;;;26.55;42.46
41218;BME280;26950;50.960;7.138;2023-06-19T01:52:57;99915.53;;;26.53;42.87
41218;BME280;26950;50.960;7.138;2023-06-19T01:55:23;99925.31;;;25.98;43.83
41218;BME280;26950;50.960;7.138;2023-06-19T01:57:51;99916.44;;;26.88;42.28
41218;BME280;26950;50.960;7.138;2023-06-19T02:00:18;99916.41;;;27.25;41.01
41218;BME280;26950;50.960;7.138;2023-06-19T02:02:45;99922.13;;;28.02;39.90
41218;BME280;26950;50.960;7.138;2023-06-19T02:05:11;99923.97;;;27.86;40.46
41218;BME280;26950;50.960;7.138;2023-06-19T02:07:38;99931.22;;;27.16;41.20
41218;BME280;26950;50.960;7.138;2023-06-19T02:10:05;99930.03;;;27.89;39.92
41218;BME280;26950;50.960;7.138;2023-06-19T02:12:33;99942.47;;;26.14;43.68
41218;BME280;26950;50.960;7.138;2023-06-19T02:15:01;99948.53;;;25.80;44.02
41218;BME280;26950;50.960;7.138;2023-06-19T02:17:28;99949.41;;;25.60;44.95
41218;BME280;26950;50.960;7.138;2023-06-19T02:19:54;99940.66;;;26.88;42.33
41218;BME280;26950;50.960;7.138;2023-06-19T02:22:21;99939.22;;;26.81;42.29
41218;BME280;26950;50.960;7.138;2023-06-19T02:24:48;99945.78;;;27.81;40.42
41218;BME280;26950;50.960;7.138;2023-06-19T02:27:14;99952.50;;;27.03;41.52
41218;BME280;26950;50.960;7.138;2023-06-19T02:29:41;99956.00;;;27.05;42.07
41218;BME280;26950;50.960;7.138;2023-06-19T02:32:09;99962.75;;;27.66;40.87
41218;BME280;26950;50.960;7.138;2023-06-19T02:34:36;99961.09;;;26.93;42.70
41218;BME280;26950;50.960;7.138;2023-06-19T02:37:03;99966.69;;;27.59;41.07
41218;BME280;26950;50.960;7.138;2023-06-19T02:39:29;99971.28;;;27.91;40.42
41218;BME280;26950;50.960;7.138;2023-06-19T02:41:56;99978.72;;;28.19;39.51
41218;BME280;26950;50.960;7.138;2023-06-19T02:44:22;99984.63;;;27.77;40.35
41218;BME280;26950;50.960;7.138;2023-06-19T02:46:49;99986.94;;;27.85;40.55
41218;BME280;26950;50.960;7.138;2023-06-19T02:49:17;99988.56;;;28.05;39.88
41218;BME280;26950;50.960;7.138;2023-06-19T02:51:43;99986.53;;;28.08;39.55
41218;BME280;26950;50.960;7.138;2023-06-19T02:54:10;99988.94;;;28.30;38.95
41218;BME280;26950;50.960;7.138;2023-06-19T02:56:37;99988.75;;;27.67;39.60
41218;BME280;26950;50.960;7.138;2023-06-19T02:59:04;99994.13;;;27.50;40.07
41218;BME280;26950;50.960;7.138;2023-06-19T03:01:30;99984.72;;;27.76;40.13
41218;BME280;26950;50.960;7.138;2023-06-19T03:03:57;99996.66;;;25.86;43.85
41218;BME280;26950;50.960;7.138;2023-06-19T03:06:25;100004.53;;;25.69;44.64
41218;BME280;26950;50.960;7.138;2023-06-19T03:08:52;100013.56;;;25.88;44.26
41218;BME280;26950;50.960;7.138;2023-06-19T03:11:18;100007.88;;;26.33;43.12
41218;BME280;26950;50.960;7.138;2023-06-19T03:13:46;99991.72;;;26.73;42.14
41218;BME280;26950;50.960;7.138;2023-06-19T03:16:13;100008.06;;;27.58;40.79
41218;BME280;26950;50.960;7.138;2023-06-19T03:18:40;100007.78;;;27.29;41.08
41218;BME280;26950;50.960;7.138;2023-06-19T03:21:07;100009.88;;;26.30;43.48
41218;BME280;26950;50.960;7.138;2023-06-19T03:23:35;100017.53;;;25.79;44.19
41218;BME280;26950;50.960;7.138;2023-06-19T03:26:01;100021.59;;;25.90;44.08
41218;BME280;26950;50.960;7.138;2023-06-19T03:28:28;100017.69;;;25.97;44.04
41218;BME280;26950;50.960;7.138;2023-06-19T03:30:55;100009.50;;;27.30;41.17
41218;BME280;26950;50.960;7.138;2023-06-19T03:33:21;100014.47;;;27.21;41.14
41218;BME280;26950;50.960;7.138;2023-06-19T03:35:48;100027.22;;;26.04;43.53
41218;BME280;26950;50.960;7.138;2023-06-19T03:38:14;100029.31;;;25.35;45.04
41218;BME280;26950;50.960;7.138;2023-06-19T03:40:42;100033.59;;;25.39;45.44
41218;BME280;26950;50.960;7.138;2023-06-19T03:43:09;100034.53;;;25.38;45.83
41218;BME280;26950;50.960;7.138;2023-06-19T03:45:36;100034.16;;;25.47;45.16
41218;BME280;26950;50.960;7.138;2023-06-19T03:48:03;100051.38;;;25.21;46.26
41218;BME280;26950;50.960;7.138;2023-06-19T03:50:30;100046.69;;;26.09;43.87
41218;BME280;26950;50.960;7.138;2023-06-19T03:52:56;100049.81;;;25.58;45.26
41218;BME280;26950;50.960;7.138;2023-06-19T03:55:23;100046.03;;;26.81;42.75
41218;BME280;26950;50.960;7.138;2023-06-19T03:57:51;100059.66;;;26.97;42.52
41218;BME280;26950;50.960;7.138;2023-06-19T04:00:18;100062.25;;;26.42;43.55
41218;BME280;26950;50.960;7.138;2023-06-19T04:02:44;100060.25;;;26.66;43.45
41218;BME280;26950;50.960;7.138;2023-06-19T04:05:12;100063.91;;;27.56;41.21
41218;BME280;26950;50.960;7.138;2023-06-19T04:07:39;100063.78;;;27.40;41.63
41218;BME280;26950;50.960;7.138;2023-06-19T04:10:06;100075.91;;;27.85;40.59
41218;BME280;26950;50.960;7.138;2023-06-19T04:12:33;100086.03;;;27.97;40.44
41218;BME280;26950;50.960;7.138;2023-06-19T04:15:01;100098.72;;;27.24;42.56
41218;BME280;26950;50.960;7.138;2023-06-19T04:17:28;100103.81;;;27.84;41.21
41218;BME280;26950;50.960;7.138;2023-06-19T04:19:54;100105.19;;;27.92;40.46
41218;BME280;26950;50.960;7.138;2023-06-19T04:22:21;100111.47;;;27.57;41.43
41218;BME280;26950;50.960;7.138;2023-06-19T04:24:47;100116.66;;;27.42;41.85
41218;BME280;26950;50.960;7.138;2023-06-19T04:27:14;100128.03;;;26.74;43.51
41218;BME280;26950;50.960;7.138;2023-06-19T04:29:42;100126.22;;;27.67;41.47
41218;BME280;26950;50.960;7.138;2023-06-19T04:32:10;100130.75;;;27.66;41.83
41218;BME280;26950;50.960;7.138;2023-06-19T04:34:38;100140.44;;;27.52;41.80
41218;BME280;26950;50.960;7.138;2023-06-19T04:37:05;100143.88;;;27.74;41.60
41218;BME280;26950;50.960;7.138;2023-06-19T04:39:31;100140.63;;;27.85;41.65
41218;BME280;26950;50.960;7.138;2023-06-19T04:41:59;100153.84;;;27.17;43.27
41218;BME280;26950;50.960;7.138;2023-06-19T04:44:25;100148.38;;;27.19;43.08
41218;BME280;26950;50.960;7.138;2023-06-19T04:46:52;100154.28;;;27.08;43.67
41218;BME280;26950;50.960;7.138;2023-06-19T04:49:27;100145.59;;;27.75;42.02
41218;BME280;26950;50.960;7.138;2023-06-19T04:51:55;100140.94;;;27.24;43.62
41218;BME280;26950;50.960;7.138;2023-06-19T04:54:21;100139.44;;;27.18;43.51
41218;BME280;26950;50.960;7.138;2023-06-19T04:56:48;100144.41;;;27.45;43.11
41218;BME280;26950;50.960;7.138;2023-06-19T04:59:14;100143.00;;;27.55;42.70
41218;BME280;26950;50.960;7.138;2023-06-19T05:01:43;100149.78;;;27.45;42.84
41218;BME280;26950;50.960;7.138;2023-06-19T05:04:10;100152.41;;;26.89;44.65
41218;BME280;26950;50.960;7.138;2023-06-19T05:06:38;100156.81;;;27.30;43.51
41218;BME280;26950;50.960;7.138;2023-06-19T05:09:05;100154.06;;;27.67;42.97
41218;BME280;26950;50.960;7.138;2023-06-19T05:11:31;100166.44;;;27.35;43.70
41218;BME280;26950;50.960;7.138;2023-06-19T05:13:58;100181.50;;;26.42;46.05
41218;BME280;26950;50.960;7.138;2023-06-19T05:16:24;100181.22;;;26.69;45.38
41218;BME280;26950;50.960;7.138;2023-06-19T05:18:51;100173.16;;;27.63;43.41
41218;BME280;26950;50.960;7.138;2023-06-19T05:21:17;100181.69;;;27.90;42.75
41218;BME280;26950;50.960;7.138;2023-06-19T05:23:45;100185.53;;;27.86;43.18
41218;BME280;26950;50.960;7.138;2023-06-19T05:26:15;100182.94;;;27.09;44.64
41218;BME280;26950;50.960;7.138;2023-06-19T05:28:42;100193.59;;;27.12;45.08
41218;BME280;26950;50.960;7.138;2023-06-19T05:31:08;100176.03;;;27.41;43.90
41218;BME280;26950;50.960;7.138;2023-06-19T05:33:35;100184.00;;;26.47;46.93
41218;BME280;26950;50.960;7.138;2023-06-19T05:36:02;100183.72;;;26.92;45.79
41218;BME280;26950;50.960;7.138;2023-06-19T05:38:28;100184.22;;;27.00;45.32
41218;BME280;26950;50.960;7.138;2023-06-19T05:40:56;100189.22;;;27.09;45.29
41218;BME280;26950;50.960;7.138;2023-06-19T05:43:23;100186.00;;;26.21;47.63
41218;BME280;26950;50.960;7.138;2023-06-19T05:45:50;100171.59;;;26.22;47.71
41218;BME280;26950;50.960;7.138;2023-06-19T05:48:17;100183.41;;;26.40;47.16
41218;BME280;26950;50.960;7.138;2023-06-19T05:50:43;100186.19;;;25.74;48.73
41218;BME280;26950;50.960;7.138;2023-06-19T05:53:10;100175.44;;;26.17;47.74
41218;BME280;26950;50.960;7.138;2023-06-19T05:55:36;100188.06;;;26.76;46.87
41218;BME280;26950;50.960;7.138;2023-06-19T05:58:04;100192.50;;;26.16;47.72
41218;BME280;26950;50.960;7.138;2023-06-19T06:00:31;100188.94;;;26.76;46.21
41218;BME280;26950;50.960;7.138;2023-06-19T06:02:58;100191.50;;;26.79;46.10
41218;BME280;26950;50.960;7.138;2023-06-19T06:05:25;100196.75;;;26.62;46.22
41218;BME280;26950;50.960;7.138;2023-06-19T06:07:53;100206.94;;;25.93;48.17
41218;BME280;26950;50.960;7.138;2023-06-19T06:10:20;100209.97;;;26.05;48.06
41218;BME280;26950;50.960;7.138;2023-06-19T06:12:47;100208.31;;;25.81;48.86
41218;BME280;26950;50.960;7.138;2023-06-19T06:15:16;100206.94;;;26.13;48.42
41218;BME280;26950;50.960;7.138;2023-06-19T06:17:42;100209.78;;;26.30;47.27
41218;BME280;26950;50.960;7.138;2023-06-19T06:20:09;100204.94;;;26.40;47.11
41218;BME280;26950;50.960;7.138;2023-06-19T06:22:37;100210.00;;;26.46;47.19
41218;BME280;26950;50.960;7.138;2023-06-19T06:25:04;100211.72;;;25.63;49.40
41218;BME280;26950;50.960;7.138;2023-06-19T06:27:31;100218.63;;;25.24;50.84
41218;BME280;26950;50.960;7.138;2023-06-19T06:29:58;100209.66;;;25.47;49.86
41218;BME280;26950;50.960;7.138;2023-06-19T06:32:26;100206.69;;;26.19;48.55
41218;BME280;26950;50.960;7.138;2023-06-19T06:34:54;100203.84;;;26.83;46.10
41218;BME280;26950;50.960;7.138;2023-06-19T06:37:20;100202.78;;;26.06;48.36
41218;BME280;26950;50.960;7.138;2023-06-19T06:39:48;100206.84;;;26.16;49.06
41218;BME280;26950;50.960;7.138;2023-06-19T06:42:14;100202.47;;;27.14;46.33
41218;BME280;26950;50.960;7.138;2023-06-19T06:44:41;100209.53;;;26.57;47.41
41218;BME280;26950;50.960;7.138;2023-06-19T06:47:07;100222.19;;;25.92;48.85
41218;BME280;26950;50.960;7.138;2023-06-19T06:49:35;100226.22;;;26.65;46.75
41218;BME280;26950;50.960;7.138;2023-06-19T06:52:02;100226.44;;;27.00;46.15
41218;BME280;26950;50.960;7.138;2023-06-19T06:54:29;100229.41;;;27.14;45.51
41218;BME280;26950;50.960;7.138;2023-06-19T06:56:56;100221.31;;;26.34;48.30
41218;BME280;26950;50.960;7.138;2023-06-19T06:59:23;100237.19;;;25.31;50.10
41218;BME280;26950;50.960;7.138;2023-06-19T07:01:52;100224.91;;;26.33;47.03
41218;BME280;26950;50.960;7.138;2023-06-19T07:04:18;100236.09;;;27.05;45.55
41218;BME280;26950;50.960;7.138;2023-06-19T07:06:46;100239.69;;;25.80;48.25
41218;BME280;26950;50.960;7.138;2023-06-19T07:09:14;100234.34;;;26.01;48.05
41218;BME280;26950;50.960;7.138;2023-06-19T07:11:41;100235.25;;;25.79;49.05
41218;BME280;26950;50.960;7.138;2023-06-19T07:14:10;100234.44;;;26.42;48.02
41218;BME280;26950;50.960;7.138;2023-06-19T07:16:37;100227.50;;;26.56;46.68
41218;BME280;26950;50.960;7.138;2023-06-19T07:19:03;100230.72;;;26.65;46.30
41218;BME280;26950;50.960;7.138;2023-06-19T07:21:30;100235.19;;;27.05;44.89
41218;BME280;26950;50.960;7.138;2023-06-19T07:23:59;100236.97;;;27.06;45.07
41218;BME280;26950;50.960;7.138;2023-06-19T07:26:25;100240.63;;;26.64;46.02
41218;BME280;26950;50.960;7.138;2023-06-19T07:28:52;100243.72;;;26.75;45.64
41218;BME280;26950;50.960;7.138;2023-06-19T07:31:18;100240.91;;;27.18;44.53
41218;BME280;26950;50.960;7.138;2023-06-19T07:33:45;100239.41;;;26.92;45.11
41218;BME280;26950;50.960;7.138;2023-06-19T07:36:11;100238.50;;;27.49;44.17
41218;BME280;26950;50.960;7.138;2023-06-19T07:38:39;100222.88;;;28.28;42.33
41218;BME280;26950;50.960;7.138;2023-06-19T07:41:07;100230.47;;;26.50;45.93
41218;BME280;26950;50.960;7.138;2023-06-19T07:43:35;100231.72;;;27.22;44.06
41218;BME280;26950;50.960;7.138;2023-06-19T07:46:01;100232.38;;;26.48;46.41
41218;BME280;26950;50.960;7.138;2023-06-19T07:48:28;100221.75;;;27.61;43.46
41218;BME280;26950;50.960;7.138;2023-06-19T07:50:55;100234.28;;;27.25;44.94
41218;BME280;26950;50.960;7.138;2023-06-19T07:53:22;100235.25;;;26.44;46.27
41218;BME280;26950;50.960;7.138;2023-06-19T07:55:48;100238.94;;;27.21;44.77
41218;BME280;26950;50.960;7.138;2023-06-19T07:58:16;100247.63;;;26.05;47.06
41218;BME280;26950;50.960;7.138;2023-06-19T08:00:43;100246.00;;;25.79;47.55
41218;BME280;26950;50.960;7.138;2023-06-19T08:03:10;100247.88;;;27.59;43.55
41218;BME280;26950;50.960;7.138;2023-06-19T08:05:36;100240.34;;;28.21;42.30
41218;BME280;26950;50.960;7.138;2023-06-19T08:08:03;100233.84;;;28.08;42.33
41218;BME280;26950;50.960;7.138;2023-06-19T08:10:29;100247.75;;;27.06;44.35
41218;BME280;26950;50.960;7.138;2023-06-19T08:12:56;100237.47;;;27.52;42.83
41218;BME280;26950;50.960;7.138;2023-06-19T08:15:23;100239.09;;;27.56;42.85
41218;BME280;26950;50.960;7.138;2023-06-19T08:17:50;100245.56;;;27.89;41.59
41218;BME280;26950;50.960;7.138;2023-06-19T08:20:16;100244.91;;;26.88;42.96
41218;BME280;26950;50.960;7.138;2023-06-19T08:22:45;100251.84;;;27.71;41.14
41218;BME280;26950;50.960;7.138;2023-06-19T08:25:11;100244.00;;;26.69;43.01
41218;BME280;26950;50.960;7.138;2023-06-19T08:27:38;100250.69;;;27.00;42.91
41218;BME280;26950;50.960;7.138;2023-06-19T08:30:05;100253.81;;;26.50;43.46
41218;BME280;26950;50.960;7.138;2023-06-19T08:32:35;100244.19;;;26.85;43.39
41218;BME280;26950;50.960;7.138;2023-06-19T08:35:02;100249.44;;;27.46;42.14
41218;BME280;26950;50.960;7.138;2023-06-19T08:37:28;100250.00;;;27.53;42.15
41218;BME280;26950;50.960;7.138;2023-06-19T08:39:55;100238.22;;;28.80;39.52
41218;BME280;26950;50.960;7.138;2023-06-19T08:42:22;100246.41;;;28.95;39.29
41218;BME280;26950;50.960;7.138;2023-06-19T08:44:49;100245.84;;;27.83;41.76
41218;BME280;26950;50.960;7.138;2023-06-19T08:47:15;100235.69;;;28.76;40.16
41218;BME280;26950;50.960;7.138;2023-06-19T08:49:44;100242.69;;;29.14;39.58
41218;BME280;26950;50.960;7.138;2023-06-19T08:52:10;100240.34;;;28.04;41.11
41218;BME280;26950;50.960;7.138;2023-06-19T08:54:37;100239.41;;;28.22;40.54
41218;BME280;26950;50.960;7.138;2023-06-19T08:57:10;100247.19;;;28.28;40.68
41218;BME280;26950;50.960;7.138;2023-06-19T08:59:37;100251.78;;;28.78;39.67
41218;BME280;26950;50.960;7.138;2023-06-19T09:02:04;100256.28;;;29.12;38.96
41218;BME280;26950;50.960;7.138;2023-06-19T09:04:31;100254.63;;;29.10;39.23
41218;BME280;26950;50.960;7.138;2023-06-19T09:07:01;100252.06;;;28.73;39.16
41218;BME280;26950;50.960;7.138;2023-06-19T09:09:28;100247.94;;;28.49;39.34
41218;BME280;26950;50.960;7.138;2023-06-19T09:11:59;100256.72;;;28.18;40.96
41218;BME280;26950;50.960;7.138;2023-06-19T09:14:33;100256.63;;;28.19;41.14
41218;BME280;26950;50.960;7.138;2023-06-19T09:17:01;100267.50;;;28.18;41.01
41218;BME280;26950;50.960;7.138;2023-06-19T09:19:27;100264.91;;;28.86;38.88
41218;BME280;26950;50.960;7.138;2023-06-19T09:22:00;100265.56;;;28.56;40.19
41218;BME280;26950;50.960;7.138;2023-06-19T09:24:35;100274.44;;;29.26;38.81
41218;BME280;26950;50.960;7.138;2023-06-19T09:27:07;100273.72;;;29.07;39.01
41218;BME280;26950;50.960;7.138;2023-06-19T09:29:36;100274.28;;;28.96;38.33
41218;BME280;26950;50.960;7.138;2023-06-19T09:32:14;100283.25;;;28.44;39.47
41218;BME280;26950;50.960;7.138;2023-06-19T09:34:40;100283.75;;;28.53;39.06
41218;BME280;26950;50.960;7.138;2023-06-19T09:37:09;100283.81;;;28.51;38.99
41218;BME280;26950;50.960;7.138;2023-06-19T09:39:36;100281.44;;;29.46;37.68
41218;BME280;26950;50.960;7.138;2023-06-19T09:42:06;100283.53;;;28.21;39.70
41218;BME280;26950;50.960;7.138;2023-06-19T09:44:39;100270.50;;;29.16;37.72
41218;BME280;26950;50.960;7.138;2023-06-19T09:47:13;100277.94;;;28.77;38.73
41218;BME280;26950;50.960;7.138;2023-06-19T09:49:47;100270.19;;;29.38;37.63
41218;BME280;26950;50.960;7.138;2023-06-19T09:52:16;100281.78;;;28.56;39.28
41218;BME280;26950;50.960;7.138;2023-06-19T09:54:45;100266.97;;;28.81;38.73
41218;BME280;26950;50.960;7.138;2023-06-19T09:57:12;100267.63;;;28.68;39.30
41218;BME280;26950;50.960;7.138;2023-06-19T09:59:39;100269.03;;;29.26;37.75
41218;BME280;26950;50.960;7.138;2023-06-19T10:02:07;100274.75;;;29.04;38.77
41218;BME280;26950;50.960;7.138;2023-06-19T10:04:42;100277.06;;;28.60;39.26
41218;BME280;26950;50.960;7.138;2023-06-19T10:07:17;100278.16;;;29.08;37.50
41218;BME280;26950;50.960;7.138;2023-06-19T10:09:58;100278.97;;;28.40;38.19
41218;BME280;26950;50.960;7.138;2023-06-19T10:12:35;100286.94;;;28.61;37.85
41218;BME280;26950;50.960;7.138;2023-06-19T10:15:10;100283.50;;;28.74;37.81
41218;BME280;26950;50.960;7.138;2023-06-19T10:17:38;100281.94;;;29.21;37.57
41218;BME280;26950;50.960;7.138;2023-06-19T10:20:20;100284.16;;;28.62;38.82
41218;BME280;26950;50.960;7.138;2023-06-19T10:22:55;100275.53;;;29.06;37.22
41218;BME280;26950;50.960;7.138;2023-06-19T10:25:23;100285.25;;;28.41;39.12
41218;BME280;26950;50.960;7.138;2023-06-19T10:27:50;100280.13;;;28.17;38.61
41218;BME280;26950;50.960;7.138;2023-06-19T10:30:18;100272.91;;;29.38;36.14
41218;BME280;26950;50.960;7.138;2023-06-19T10:32:45;100279.94;;;29.24;36.79
41218;BME280;26950;50.960;7.138;2023-06-19T10:35:12;100272.94;;;29.85;36.18
41218;BME280;26950;50.960;7.138;2023-06-19T10:37:39;100267.06;;;30.54;34.98
41218;BME280;26950;50.960;7.138;2023-06-19T10:40:08;100270.47;;;29.49;36.74
41218;BME280;26950;50.960;7.138;2023-06-19T10:42:36;100271.03;;;29.87;36.50
41218;BME280;26950;50.960;7.138;2023-06-19T10:45:04;100269.81;;;29.12;37.11
41218;BME280;26950;50.960;7.138;2023-06-19T10:47:32;100260.22;;;31.07;33.84
41218;BME280;26950;50.960;7.138;2023-06-19T10:49:58;100269.97;;;30.96;33.80
41218;BME280;26950;50.960;7.138;2023-06-19T10:52:28;100265.31;;;30.98;33.18
41218;BME280;26950;50.960;7.138;2023-06-19T10:54:54;100261.34;;;30.45;34.59
41218;BME280;26950;50.960;7.138;2023-06-19T10:57:28;100260.69;;;30.09;35.34
41218;BME280;26950;50.960;7.138;2023-06-19T10:59:54;100260.28;;;30.01;35.36
41218;BME280;26950;50.960;7.138;2023-06-19T11:02:22;100256.53;;;29.08;35.97
41218;BME280;26950;50.960;7.138;2023-06-19T11:04:49;100255.56;;;30.65;33.78
41218;BME280;26950;50.960;7.138;2023-06-19T11:07:18;100261.44;;;30.13;35.01
41218;BME280;26950;50.960;7.138;2023-06-19T11:09:44;100253.81;;;30.20;34.20
41218;BME280;26950;50.960;7.138;2023-06-19T11:12:11;100252.81;;;30.37;34.52
41218;BME280;26950;50.960;7.138;2023-06-19T11:14:39;100250.63;;;30.43;34.64
41218;BME280;26950;50.960;7.138;2023-06-19T11:17:07;100254.22;;;30.28;34.39
41218;BME280;26950;50.960;7.138;2023-06-19T11:19:33;100241.16;;;30.65;33.44
41218;BME280;26950;50.960;7.138;2023-06-19T11:22:00;100246.31;;;30.25;33.74
41218;BME280;26950;50.960;7.138;2023-06-19T11:24:29;100247.91;;;30.87;32.00
41218;BME280;26950;50.960;7.138;2023-06-19T11:26:56;100241.69;;;30.71;32.47
41218;BME280;26950;50.960;7.138;2023-06-19T11:29:28;100237.19;;;30.56;32.83
41218;BME280;26950;50.960;7.138;2023-06-19T11:32:07;100236.09;;;31.46;31.70
41218;BME280;26950;50.960;7.138;2023-06-19T11:34:35;100233.31;;;30.00;34.12
41218;BME280;26950;50.960;7.138;2023-06-19T11:37:02;100239.03;;;29.79;33.95
41218;BME280;26950;50.960;7.138;2023-06-19T11:39:31;100234.66;;;30.83;32.27
41218;BME280;26950;50.960;7.138;2023-06-19T11:41:58;100232.31;;;30.17;33.65
41218;BME280;26950;50.960;7.138;2023-06-19T11:44:25;100222.31;;;30.19;34.14
41218;BME280;26950;50.960;7.138;2023-06-19T11:46:56;100230.38;;;30.79;33.46
41218;BME280;26950;50.960;7.138;2023-06-19T11:49:24;100229.41;;;30.80;32.61
41218;BME280;26950;50.960;7.138;2023-06-19T11:51:50;100236.19;;;31.30;31.53
41218;BME280;26950;50.960;7.138;2023-06-19T11:54:18;100231.34;;;30.48;32.56
41218;BME280;26950;50.960;7.138;2023-06-19T11:56:46;100237.09;;;30.27;33.41
41218;BME280;26950;50.960;7.138;2023-06-19T11:59:13;100241.91;;;30.22;33.61
41218;BME280;26950;50.960;7.138;2023-06-19T12:01:40;100239.56;;;30.32;33.45
41218;BME280;26950;50.960;7.138;2023-06-19T12:04:06;100239.56;;;30.32;32.97
41218;BME280;26950;50.960;7.138;2023-06-19T12:06:34;100244.69;;;29.75;34.34
41218;BME280;26950;50.960;7.138;2023-06-19T12:09:02;100244.69;;;29.59;35.81
41218;BME280;26950;50.960;7.138;2023-06-19T12:11:30;100236.50;;;29.61;34.68
41218;BME280;26950;50.960;7.138;2023-06-19T12:13:57;100232.78;;;30.69;32.94
41218;BME280;26950;50.960;7.138;2023-06-19T12:16:23;100234.38;;;31.02;32.77
41218;BME280;26950;50.960;7.138;2023-06-19T12:18:50;100231.56;;;30.75;33.64
41218;BME280;26950;50.960;7.138;2023-06-19T12:21:17;100224.03;;;30.04;34.76
41218;BME280;26950;50.960;7.138;2023-06-19T12:23:45;100232.13;;;30.94;32.73
41218;BME280;26950;50.960;7.138;2023-06-19T12:26:11;100229.22;;;30.83;31.67
41218;BME280;26950;50.960;7.138;2023-06-19T12:28:37;100226.16;;;30.59;31.45
41218;BME280;26950;50.960;7.138;2023-06-19T12:31:04;100226.44;;;30.54;32.32
41218;BME280;26950;50.960;7.138;2023-06-19T12:33:31;100232.31;;;30.91;31.28
41218;BME280;26950;50.960;7.138;2023-06-19T12:35:58;100233.66;;;30.98;29.87
41218;BME280;26950;50.960;7.138;2023-06-19T12:38:24;100223.69;;;30.40;30.63
41218;BME280;26950;50.960;7.138;2023-06-19T12:40:53;100221.00;;;30.84;29.45
41218;BME280;26950;50.960;7.138;2023-06-19T12:43:19;100226.22;;;29.97;30.20
41218;BME280;26950;50.960;7.138;2023-06-19T12:45:46;100227.44;;;29.62;31.12
41218;BME280;26950;50.960;7.138;2023-06-19T12:48:12;100223.09;;;30.35;29.92
41218;BME280;26950;50.960;7.138;2023-06-19T12:50:39;100230.59;;;30.90;30.59
41218;BME280;26950;50.960;7.138;2023-06-19T12:53:08;100223.69;;;30.99;30.70
41218;BME280;26950;50.960;7.138;2023-06-19T12:55:36;100222.47;;;31.19;30.08